createdAt,value
2023-03-22T00:04:08.412Z,7
2023-03-22T00:09:16.405Z,7
2023-03-22T00:14:23.105Z,7
2023-03-22T00:19:29.846Z,6.9
2023-03-22T00:24:36.637Z,6.9
2023-03-22T00:29:43.354Z,6.9
2023-03-22T00:34:51.322Z,6.9
2023-03-22T00:39:58.104Z,6.9
2023-03-22T00:45:04.822Z,6.9
2023-03-22T00:50:12.809Z,6.9
2023-03-22T00:55:19.668Z,6.9
2023-03-22T01:00:27.526Z,6.9
2023-03-22T01:05:34.271Z,6.9
2023-03-22T01:10:41.300Z,6.9
2023-03-22T01:15:49.171Z,6.9
2023-03-22T01:20:56.973Z,6.9
2023-03-22T01:26:03.771Z,6.9
2023-03-22T01:31:10.457Z,6.9
2023-03-22T01:36:17.138Z,6.9
2023-03-22T01:41:25.150Z,6.8
2023-03-22T01:46:32.008Z,6.8
2023-03-22T01:51:38.714Z,6.8
2023-03-22T01:56:46.637Z,6.8
2023-03-22T02:01:54.621Z,6.8
2023-03-22T02:07:01.386Z,6.8
2023-03-22T02:12:08.079Z,6.8
2023-03-22T02:17:16.093Z,6.8
2023-03-22T02:22:22.838Z,6.8
2023-03-22T02:27:29.597Z,6.8
2023-03-22T02:32:37.569Z,6.8
2023-03-22T02:37:45.521Z,6.8
2023-03-22T02:42:52.298Z,6.8
2023-03-22T02:47:58.996Z,6.8
2023-03-22T02:53:05.689Z,6.8
2023-03-22T02:58:13.695Z,6.7
2023-03-22T03:03:20.467Z,6.7
2023-03-22T03:08:27.168Z,6.7
2023-03-22T03:13:33.971Z,6.8
2023-03-22T03:18:40.696Z,6.8
2023-03-22T03:23:47.438Z,6.8
2023-03-22T03:28:54.214Z,6.8
2023-03-22T03:34:00.937Z,6.7
2023-03-22T03:39:07.659Z,6.7
2023-03-22T03:44:15.672Z,6.7
2023-03-22T03:49:22.373Z,6.7
2023-03-22T03:54:29.143Z,6.7
2023-03-22T03:59:35.903Z,6.7
2023-03-22T04:04:42.696Z,6.7
2023-03-22T04:09:49.352Z,6.7
2023-03-22T04:14:57.315Z,6.6
2023-03-22T04:20:05.857Z,6.7
2023-03-22T04:25:11.999Z,6.7
2023-03-22T04:30:18.854Z,6.7
2023-03-22T04:35:25.604Z,6.7
2023-03-22T04:40:33.546Z,6.6
2023-03-22T04:45:40.334Z,6.6
2023-03-22T04:50:47.020Z,6.6
2023-03-22T04:55:54.996Z,6.6
2023-03-22T05:01:01.763Z,6.6
2023-03-22T05:06:08.418Z,6.6
2023-03-22T05:11:15.230Z,6.6
2023-03-22T05:16:22.101Z,6.6
2023-03-22T05:21:28.747Z,6.6
2023-03-22T05:26:35.469Z,6.6
2023-03-22T05:31:43.544Z,6.6
2023-03-22T05:36:50.155Z,6.6
2023-03-22T05:41:58.199Z,6.6
2023-03-22T05:47:05.003Z,6.6
2023-03-22T05:52:12.912Z,6.6
2023-03-22T05:57:19.662Z,6.6
2023-03-22T06:02:27.676Z,6.6
2023-03-22T06:07:35.699Z,6.5
2023-03-22T06:12:42.355Z,6.5
2023-03-22T06:17:49.122Z,6.5
2023-03-22T06:22:55.841Z,6.5
2023-03-22T06:28:02.604Z,6.5
2023-03-22T06:33:09.361Z,6.5
2023-03-22T06:38:16.065Z,6.5
2023-03-22T06:43:22.830Z,6.5
2023-03-22T06:48:30.807Z,6.5
2023-03-22T06:53:37.518Z,6.6
2023-03-22T06:58:44.263Z,6.6
2023-03-22T07:03:51.141Z,6.6
2023-03-22T07:08:57.759Z,6.6
2023-03-22T07:14:05.738Z,6.6
2023-03-22T07:19:13.734Z,6.6
2023-03-22T07:24:20.453Z,6.6
2023-03-22T07:29:28.410Z,6.6
2023-03-22T07:34:35.181Z,6.6
2023-03-22T07:39:41.905Z,6.7
2023-03-22T07:44:48.706Z,6.7
2023-03-22T07:49:55.454Z,6.7
2023-03-22T07:55:03.377Z,6.7
2023-03-22T08:00:10.111Z,6.7
2023-03-22T08:05:16.911Z,6.8
2023-03-22T08:10:23.643Z,6.8
2023-03-22T08:15:30.356Z,6.8
2023-03-22T08:20:37.158Z,6.8
2023-03-22T08:25:43.784Z,6.9
2023-03-22T08:30:51.811Z,6.9
2023-03-22T08:35:58.625Z,6.9
2023-03-22T08:41:05.291Z,6.9
2023-03-22T08:46:12.135Z,7
2023-03-22T08:51:20.078Z,7
2023-03-22T08:56:26.791Z,7
2023-03-22T09:01:33.699Z,7.1
2023-03-22T09:06:41.517Z,7.1
2023-03-22T09:11:48.252Z,7.1
2023-03-22T09:16:54.982Z,7.2
2023-03-22T09:22:01.751Z,7.2
2023-03-22T09:27:08.459Z,7.3
2023-03-22T09:32:15.212Z,7.3
2023-03-22T09:37:21.975Z,7.4
2023-03-22T09:42:29.948Z,7.4
2023-03-22T09:47:44.347Z,7.5
2023-03-22T09:52:43.465Z,7.5
2023-03-22T09:57:50.152Z,7.6
2023-03-22T10:02:56.942Z,7.6
2023-03-22T10:08:03.682Z,7.7
2023-03-22T10:13:10.389Z,7.7
2023-03-22T10:18:18.368Z,7.7
2023-03-22T10:23:25.144Z,7.7
2023-03-22T10:28:31.872Z,7.8
2023-03-22T10:33:39.830Z,7.8
2023-03-22T10:38:46.609Z,7.9
2023-03-22T10:43:53.320Z,7.9
2023-03-22T10:49:00.060Z,8
2023-03-22T10:54:08.050Z,8
2023-03-22T10:59:14.782Z,8.1
2023-03-22T11:04:21.526Z,8.1
2023-03-22T11:09:28.301Z,8.2
2023-03-22T11:14:35.014Z,8.2
2023-03-22T11:19:41.756Z,8.3
2023-03-22T11:24:48.524Z,8.4
2023-03-22T11:29:56.486Z,8.4
2023-03-22T11:35:03.244Z,8.5
2023-03-22T11:40:09.967Z,8.5
2023-03-22T11:45:16.694Z,8.6
2023-03-22T11:50:23.366Z,8.6
2023-03-22T11:55:30.130Z,8.6
2023-03-22T12:00:38.158Z,8.7
2023-03-22T12:05:46.173Z,8.7
2023-03-22T12:10:54.131Z,8.7
2023-03-22T12:16:00.968Z,8.8
2023-03-22T12:21:07.580Z,8.9
2023-03-22T12:26:14.389Z,8.9
2023-03-22T12:31:22.372Z,8.9
2023-03-22T12:36:29.088Z,8.9
2023-03-22T12:41:35.880Z,8.9
2023-03-22T12:46:42.629Z,9
2023-03-22T12:51:50.522Z,9
2023-03-22T12:56:57.289Z,9
2023-03-22T13:02:04.002Z,9
2023-03-22T13:07:11.989Z,9.1
2023-03-22T13:12:18.753Z,9.1
2023-03-22T13:17:26.686Z,9.1
2023-03-22T13:22:33.460Z,9.1
2023-03-22T13:27:40.199Z,9.1
2023-03-22T13:32:47.023Z,9.1
2023-03-22T13:37:53.655Z,9.1
2023-03-22T13:43:01.738Z,9.1
2023-03-22T13:48:08.478Z,9.2
2023-03-22T13:53:15.117Z,9.1
2023-03-22T13:58:21.900Z,9.1
2023-03-22T14:03:28.722Z,9.1
2023-03-22T14:08:35.367Z,9.1
2023-03-22T14:13:42.118Z,9
2023-03-22T14:18:48.862Z,9
